Time;durP1;ratioP1;P1;durP2;ratioP2;P2;SDS_P1;SDS_P2;PMS_P1;PMS_P2;Temp;Humidity;BMP_temperature;BMP_pressure;BME280_temperature;BME280_humidity;BME280_pressure;Samples;Min_cycle;Max_cycle;Signal;HPM_P1;HPM_P2
2022/12/12 00:00:54;;;;;;;22.40;13.57;;;;;;;;;;5045579;28;20236;-78
2022/12/12 00:03:20;;;;;;;22.60;13.53;;;;;;;;;;5046229;28;20743;-78
2022/12/12 00:05:45;;;;;;;21.83;14.07;;;;;;;;;;5040660;28;20268;-78
2022/12/12 00:08:10;;;;;;;23.83;14.47;;;;;;;;;;5043285;28;20195;-78
2022/12/12 00:10:36;;;;;;;22.90;14.03;;;;;;;;;;5047234;28;20247;-78
2022/12/12 00:13:01;;;;;;;21.47;13.90;;;;;;;;;;5050226;28;20170;-78
2022/12/12 00:15:26;;;;;;;23.83;14.70;;;;;;;;;;5043633;28;20170;-78
2022/12/12 00:17:52;;;;;;;22.87;16.30;;;;;;;;;;5039691;28;20170;-78
2022/12/12 00:20:17;;;;;;;27.50;16.63;;;;;;;;;;5043711;28;20227;-78
2022/12/12 00:22:42;;;;;;;22.90;14.27;;;;;;;;;;5046632;28;20189;-78
2022/12/12 00:25:08;;;;;;;22.13;13.83;;;;;;;;;;5044895;28;20293;-78
2022/12/12 00:27:33;;;;;;;23.90;14.87;;;;;;;;;;5050859;28;20178;-78
2022/12/12 00:29:58;;;;;;;23.10;14.93;;;;;;;;;;5049870;28;20216;-77
2022/12/12 00:32:24;;;;;;;22.60;14.37;;;;;;;;;;5048540;28;20228;-77
2022/12/12 00:34:49;;;;;;;27.23;14.63;;;;;;;;;;5051702;28;20208;-78
2022/12/12 00:37:14;;;;;;;29.83;14.93;;;;;;;;;;5044451;28;20202;-78
2022/12/12 00:39:39;;;;;;;27.40;14.77;;;;;;;;;;5039627;28;20261;-78
2022/12/12 00:42:04;;;;;;;25.63;15.00;;;;;;;;;;5034606;28;20236;-78
2022/12/12 00:44:30;;;;;;;26.37;14.97;;;;;;;;;;5036444;28;20198;-78
2022/12/12 00:46:55;;;;;;;28.67;15.63;;;;;;;;;;5040780;28;20215;-78
2022/12/12 00:49:21;;;;;;;31.50;16.33;;;;;;;;;;5044597;28;20182;-78
2022/12/12 00:51:47;;;;;;;25.50;15.17;;;;;;;;;;5047540;28;20280;-77
2022/12/12 00:54:12;;;;;;;26.37;14.73;;;;;;;;;;5047274;28;20293;-77
2022/12/12 00:56:38;;;;;;;25.33;14.83;;;;;;;;;;5049177;28;20180;-77
2022/12/12 00:59:03;;;;;;;26.37;14.50;;;;;;;;;;5044236;28;20308;-76
2022/12/12 01:01:29;;;;;;;25.30;14.70;;;;;;;;;;5037562;28;20264;-78
2022/12/12 01:03:54;;;;;;;24.53;13.80;;;;;;;;;;5048299;28;20663;-78
2022/12/12 01:06:20;;;;;;;25.87;14.43;;;;;;;;;;5043401;28;20175;-78
2022/12/12 01:08:45;;;;;;;26.87;15.13;;;;;;;;;;5046939;28;20223;-78
2022/12/12 01:11:11;;;;;;;26.50;15.43;;;;;;;;;;5045403;28;20224;-78
2022/12/12 01:13:37;;;;;;;24.00;13.90;;;;;;;;;;5047341;28;20815;-80
2022/12/12 01:16:03;;;;;;;28.67;16.00;;;;;;;;;;5044152;28;20178;-78
2022/12/12 01:18:28;;;;;;;26.90;16.03;;;;;;;;;;5045059;28;20169;-78
2022/12/12 01:20:53;;;;;;;30.40;16.40;;;;;;;;;;5045644;28;20185;-78
2022/12/12 01:23:18;;;;;;;26.47;14.60;;;;;;;;;;5049529;28;20558;-78
2022/12/12 01:25:44;;;;;;;32.63;17.03;;;;;;;;;;5050602;28;20196;-78
2022/12/12 01:28:09;;;;;;;27.33;15.43;;;;;;;;;;5047642;28;20560;-78
2022/12/12 01:30:34;;;;;;;30.57;16.00;;;;;;;;;;5049095;28;20607;-78
2022/12/12 01:33:00;;;;;;;30.93;17.37;;;;;;;;;;5043580;28;20549;-78
2022/12/12 01:35:25;;;;;;;28.03;15.47;;;;;;;;;;5040633;28;20184;-78
2022/12/12 01:37:51;;;;;;;29.87;16.77;;;;;;;;;;5040054;28;20748;-77
2022/12/12 01:40:18;;;;;;;27.27;15.43;;;;;;;;;;5041904;28;20194;-77
2022/12/12 01:42:44;;;;;;;29.00;15.00;;;;;;;;;;5035137;28;20184;-78
2022/12/12 01:45:29;;;;;;;26.77;16.23;;;;;;;;;;5044295;28;20197;-78
2022/12/12 01:47:54;;;;;;;31.27;16.37;;;;;;;;;;5023279;28;20177;-77
2022/12/12 01:50:20;;;;;;;25.73;14.00;;;;;;;;;;5045492;28;20277;-78
2022/12/12 01:52:47;;;;;;;27.47;15.10;;;;;;;;;;5033448;28;20171;-78
2022/12/12 01:55:15;;;;;;;32.27;15.23;;;;;;;;;;5043960;28;20195;-77
2022/12/12 01:57:43;;;;;;;32.97;16.43;;;;;;;;;;5054666;28;20166;-77
2022/12/12 02:00:09;;;;;;;29.67;14.97;;;;;;;;;;5044245;28;20186;-78
2022/12/12 02:02:35;;;;;;;29.60;15.30;;;;;;;;;;5046648;28;20178;-78
2022/12/12 02:05:04;;;;;;;26.97;14.40;;;;;;;;;;5045512;28;20201;-77
2022/12/12 02:07:29;;;;;;;25.27;14.63;;;;;;;;;;5049030;28;20193;-78
2022/12/12 02:09:54;;;;;;;27.60;15.27;;;;;;;;;;5047166;28;20190;-78
2022/12/12 02:12:19;;;;;;;32.13;16.93;;;;;;;;;;5044246;28;20197;-78
2022/12/12 02:14:47;;;;;;;30.37;16.43;;;;;;;;;;5055026;28;20212;-78
2022/12/12 02:17:18;;;;;;;27.60;15.40;;;;;;;;;;5054627;28;20174;-78
2022/12/12 02:20:01;;;;;;;31.30;16.67;;;;;;;;;;5049905;28;20166;-77
2022/12/12 02:22:27;;;;;;;31.10;16.57;;;;;;;;;;5052350;28;20285;-78
2022/12/12 02:25:08;;;;;;;32.07;18.00;;;;;;;;;;5052377;28;20678;-78
2022/12/12 02:27:52;;;;;;;27.07;15.43;;;;;;;;;;5047603;28;20232;-78
2022/12/12 02:30:27;;;;;;;32.00;16.37;;;;;;;;;;5052216;28;20179;-78
2022/12/12 02:33:05;;;;;;;28.30;16.10;;;;;;;;;;5047061;28;20173;-78
2022/12/12 02:35:38;;;;;;;31.00;15.93;;;;;;;;;;5045912;28;20185;-78
2022/12/12 02:38:06;;;;;;;31.13;15.77;;;;;;;;;;5050292;28;20186;-78
2022/12/12 02:40:32;;;;;;;29.83;15.63;;;;;;;;;;5045456;28;20180;-78
2022/12/12 02:43:08;;;;;;;32.57;17.17;;;;;;;;;;5048496;28;20210;-78
2022/12/12 02:45:53;;;;;;;27.30;16.03;;;;;;;;;;5055925;28;20213;-78
2022/12/12 02:48:29;;;;;;;34.93;15.83;;;;;;;;;;5046980;28;20196;-78
2022/12/12 02:50:56;;;;;;;33.53;17.07;;;;;;;;;;5055340;28;20201;-78
2022/12/12 02:53:22;;;;;;;27.20;15.30;;;;;;;;;;5047921;28;20201;-78
2022/12/12 02:55:48;;;;;;;30.50;16.03;;;;;;;;;;5055792;28;20170;-78
2022/12/12 02:58:13;;;;;;;30.40;16.97;;;;;;;;;;5046521;28;20178;-78
2022/12/12 03:00:48;;;;;;;31.60;16.57;;;;;;;;;;5044719;28;20177;-79
2022/12/12 03:09:29;;;;;;;27.80;14.40;;;;;;;;;;5043282;28;20200;-78
2022/12/12 03:12:03;;;;;;;30.83;17.03;;;;;;;;;;5044498;28;20224;-78
2022/12/12 03:14:37;;;;;;;33.20;16.47;;;;;;;;;;5049875;28;20215;-78
2022/12/12 03:17:20;;;;;;;34.63;15.67;;;;;;;;;;5047469;28;20605;-78
2022/12/12 03:19:59;;;;;;;34.97;17.97;;;;;;;;;;5042814;28;20660;-78
2022/12/12 03:22:32;;;;;;;30.13;15.83;;;;;;;;;;5047557;28;20170;-77
2022/12/12 03:25:15;;;;;;;27.13;15.70;;;;;;;;;;5043561;23;20226;-71
2022/12/12 03:27:47;;;;;;;35.47;16.93;;;;;;;;;;5033982;28;20257;-72
2022/12/12 03:30:14;;;;;;;33.93;17.83;;;;;;;;;;5030754;28;20539;-72
2022/12/12 03:32:39;;;;;;;30.83;17.00;;;;;;;;;;5031870;28;20773;-71
2022/12/12 03:35:27;;;;;;;34.77;17.30;;;;;;;;;;5020122;28;20201;-72
2022/12/12 03:38:05;;;;;;;33.13;17.17;;;;;;;;;;5010581;28;20179;-71
2022/12/12 03:40:34;;;;;;;29.00;16.13;;;;;;;;;;5015504;28;20179;-72
2022/12/12 03:43:04;;;;;;;30.57;16.30;;;;;;;;;;5012538;28;20615;-71
2022/12/12 03:45:41;;;;;;;30.73;16.37;;;;;;;;;;5013019;28;20237;-71
2022/12/12 03:48:07;;;;;;;36.20;17.27;;;;;;;;;;5008925;28;20210;-71
2022/12/12 03:50:36;;;;;;;34.80;17.43;;;;;;;;;;5012434;28;20672;-72
2022/12/12 03:53:04;;;;;;;31.93;16.20;;;;;;;;;;5008168;28;20183;-72
2022/12/12 03:55:29;;;;;;;31.70;16.50;;;;;;;;;;5010000;28;20202;-71
2022/12/12 03:57:58;;;;;;;34.73;16.87;;;;;;;;;;5010956;28;20193;-72
2022/12/12 04:00:23;;;;;;;33.67;17.87;;;;;;;;;;5009487;28;20179;-71
2022/12/12 04:02:58;;;;;;;31.90;17.60;;;;;;;;;;5011280;28;20209;-72
2022/12/12 04:05:34;;;;;;;35.63;16.80;;;;;;;;;;5010923;28;20213;-71
2022/12/12 04:08:11;;;;;;;36.17;16.07;;;;;;;;;;5011715;28;20629;-72
2022/12/12 04:13:37;;;;;;;34.93;15.60;;;;;;;;;;5010890;28;20613;-72
2022/12/12 04:16:05;;;;;;;33.53;17.33;;;;;;;;;;5010139;28;20202;-72
2022/12/12 04:18:44;;;;;;;29.10;15.17;;;;;;;;;;5008941;28;20215;-73
2022/12/12 04:24:07;;;;;;;31.97;15.50;;;;;;;;;;5024923;28;20225;-72
2022/12/12 04:26:38;;;;;;;30.57;15.73;;;;;;;;;;5010347;28;20275;-72
2022/12/12 04:29:22;;;;;;;25.60;14.20;;;;;;;;;;5001085;28;20195;-72
2022/12/12 04:31:55;;;;;;;30.60;16.07;;;;;;;;;;5009615;28;20202;-72
2022/12/12 04:34:36;;;;;;;32.23;15.90;;;;;;;;;;5012208;28;20195;-72
2022/12/12 04:37:04;;;;;;;32.47;15.90;;;;;;;;;;5009477;28;20225;-71
2022/12/12 04:39:30;;;;;;;38.87;18.13;;;;;;;;;;5010570;28;20732;-71
2022/12/12 04:41:56;;;;;;;35.90;16.27;;;;;;;;;;5008530;28;20270;-72
2022/12/12 04:44:22;;;;;;;31.77;17.20;;;;;;;;;;5010946;28;20285;-72
2022/12/12 04:46:49;;;;;;;30.27;16.17;;;;;;;;;;5010676;28;20266;-72
2022/12/12 04:49:18;;;;;;;34.50;16.27;;;;;;;;;;5011407;28;20257;-71
2022/12/12 04:51:44;;;;;;;36.10;16.73;;;;;;;;;;5001911;28;20217;-72
2022/12/12 04:54:13;;;;;;;35.50;18.20;;;;;;;;;;5009590;28;20297;-71
2022/12/12 04:56:40;;;;;;;33.87;16.97;;;;;;;;;;5010484;28;20175;-72
2022/12/12 04:59:06;;;;;;;37.80;17.43;;;;;;;;;;5009934;28;20345;-72
2022/12/12 05:01:44;;;;;;;30.60;16.37;;;;;;;;;;5005318;28;20538;-71
2022/12/12 05:04:21;;;;;;;32.60;16.77;;;;;;;;;;5008887;28;20207;-72
2022/12/12 05:06:49;;;;;;;37.47;16.53;;;;;;;;;;5007778;28;20719;-72
2022/12/12 05:09:15;;;;;;;30.63;14.47;;;;;;;;;;5010155;28;20707;-72
2022/12/12 05:11:41;;;;;;;31.37;15.70;;;;;;;;;;5009008;28;20719;-72
2022/12/12 05:14:06;;;;;;;34.57;15.70;;;;;;;;;;5007859;28;20294;-72
2022/12/12 05:16:34;;;;;;;31.37;16.80;;;;;;;;;;5008229;28;20649;-72
2022/12/12 05:18:59;;;;;;;29.97;16.20;;;;;;;;;;5010799;28;20206;-72
2022/12/12 05:21:24;;;;;;;40.10;17.47;;;;;;;;;;5009685;28;20687;-72
2022/12/12 05:23:50;;;;;;;25.40;14.37;;;;;;;;;;5009855;28;20577;-72
2022/12/12 05:26:17;;;;;;;30.13;15.83;;;;;;;;;;5010611;28;20197;-72
2022/12/12 05:28:43;;;;;;;29.17;15.27;;;;;;;;;;5008414;28;20630;-71
2022/12/12 05:31:08;;;;;;;36.67;17.27;;;;;;;;;;5007860;28;20256;-72
2022/12/12 05:33:33;;;;;;;35.53;16.23;;;;;;;;;;5013130;28;20178;-71
2022/12/12 05:35:58;;;;;;;26.27;14.23;;;;;;;;;;5012113;28;20182;-72
2022/12/12 05:38:24;;;;;;;28.63;15.13;;;;;;;;;;5014142;28;20174;-72
2022/12/12 05:40:49;;;;;;;34.57;16.07;;;;;;;;;;5013356;28;20206;-72
2022/12/12 05:43:14;;;;;;;31.17;15.73;;;;;;;;;;5012459;28;20560;-72
2022/12/12 05:45:40;;;;;;;34.07;14.83;;;;;;;;;;5016911;28;20656;-72
2022/12/12 05:48:05;;;;;;;35.07;16.73;;;;;;;;;;5015070;28;20181;-72
2022/12/12 05:50:30;;;;;;;27.70;16.07;;;;;;;;;;5014937;28;20171;-71
2022/12/12 05:52:55;;;;;;;38.30;18.03;;;;;;;;;;5013209;28;20198;-71
2022/12/12 05:55:20;;;;;;;36.83;18.00;;;;;;;;;;5006879;28;20573;-72
2022/12/12 05:57:46;;;;;;;35.97;16.90;;;;;;;;;;5013018;28;20203;-71
2022/12/12 06:00:11;;;;;;;32.33;16.80;;;;;;;;;;5009382;28;20254;-72
2022/12/12 06:02:37;;;;;;;32.20;16.87;;;;;;;;;;5010512;28;20187;-72
2022/12/12 06:05:03;;;;;;;31.83;17.13;;;;;;;;;;5011044;28;20191;-71
2022/12/12 06:07:28;;;;;;;37.10;18.27;;;;;;;;;;5014782;28;20185;-71
2022/12/12 06:09:54;;;;;;;37.23;16.03;;;;;;;;;;5014506;28;20205;-71
2022/12/12 06:12:19;;;;;;;35.37;17.33;;;;;;;;;;5014046;28;20207;-72
2022/12/12 06:14:45;;;;;;;29.63;15.57;;;;;;;;;;5015166;28;20249;-72
2022/12/12 06:17:10;;;;;;;36.10;17.10;;;;;;;;;;5011355;28;20203;-71
2022/12/12 06:19:35;;;;;;;33.40;16.13;;;;;;;;;;5005496;28;20267;-71
2022/12/12 06:22:00;;;;;;;34.87;18.13;;;;;;;;;;5011823;28;21388;-71
2022/12/12 06:24:26;;;;;;;26.87;14.83;;;;;;;;;;5011866;28;20257;-71
2022/12/12 06:26:51;;;;;;;36.73;16.90;;;;;;;;;;5010975;28;20182;-71
2022/12/12 06:29:16;;;;;;;32.70;15.97;;;;;;;;;;5007882;28;20179;-73
2022/12/12 06:31:41;;;;;;;36.10;16.63;;;;;;;;;;5011691;28;20191;-71
2022/12/12 06:34:07;;;;;;;30.13;15.70;;;;;;;;;;5012268;28;20281;-71
2022/12/12 06:36:32;;;;;;;33.00;15.77;;;;;;;;;;5017640;28;20719;-71
2022/12/12 06:38:58;;;;;;;34.77;17.13;;;;;;;;;;5015503;28;20174;-72
2022/12/12 06:41:24;;;;;;;33.40;16.43;;;;;;;;;;5012228;28;20182;-73
2022/12/12 06:43:50;;;;;;;36.90;17.30;;;;;;;;;;5013120;28;20191;-71
2022/12/12 06:46:16;;;;;;;44.43;19.60;;;;;;;;;;5016611;28;20203;-71
2022/12/12 06:48:42;;;;;;;31.30;17.00;;;;;;;;;;5016938;28;20179;-72
2022/12/12 06:51:08;;;;;;;41.53;18.43;;;;;;;;;;5011803;28;20264;-71
2022/12/12 06:53:33;;;;;;;33.40;15.83;;;;;;;;;;5014332;28;20179;-71
2022/12/12 06:55:58;;;;;;;33.67;16.13;;;;;;;;;;5013107;28;20174;-71
2022/12/12 06:58:24;;;;;;;36.27;17.40;;;;;;;;;;5017265;28;20181;-71
2022/12/12 07:00:50;;;;;;;40.87;16.97;;;;;;;;;;5008032;28;20185;-72
2022/12/12 07:03:15;;;;;;;33.23;16.70;;;;;;;;;;5008385;28;20244;-71
2022/12/12 07:05:40;;;;;;;35.63;16.17;;;;;;;;;;5015729;28;20215;-71
2022/12/12 07:08:06;;;;;;;33.37;16.53;;;;;;;;;;5013355;28;20639;-71
2022/12/12 07:10:34;;;;;;;31.73;15.87;;;;;;;;;;5016526;28;20175;-71
2022/12/12 07:12:59;;;;;;;31.00;15.77;;;;;;;;;;5012715;28;20179;-71
2022/12/12 07:15:24;;;;;;;36.07;18.00;;;;;;;;;;5013676;28;20203;-71
2022/12/12 07:17:50;;;;;;;31.60;16.97;;;;;;;;;;5013433;28;20167;-72
2022/12/12 07:20:15;;;;;;;32.90;17.17;;;;;;;;;;5006493;28;20168;-71
2022/12/12 07:22:41;;;;;;;36.03;18.43;;;;;;;;;;5014837;28;20174;-72
2022/12/12 07:25:07;;;;;;;40.23;17.77;;;;;;;;;;5013157;28;20301;-72
2022/12/12 07:27:32;;;;;;;31.03;16.43;;;;;;;;;;5008562;28;20266;-72
2022/12/12 07:29:57;;;;;;;36.03;16.53;;;;;;;;;;5013721;28;20211;-72
2022/12/12 07:32:23;;;;;;;32.47;18.33;;;;;;;;;;5012427;28;20201;-72
2022/12/12 07:34:48;;;;;;;39.93;17.77;;;;;;;;;;5013100;28;20759;-71
2022/12/12 07:37:13;;;;;;;36.93;17.07;;;;;;;;;;5007436;28;20171;-71
2022/12/12 07:39:38;;;;;;;38.27;18.23;;;;;;;;;;5009864;28;20200;-71
2022/12/12 07:42:04;;;;;;;37.17;17.87;;;;;;;;;;5012375;28;20183;-72
2022/12/12 07:44:29;;;;;;;34.33;16.40;;;;;;;;;;5012399;28;20210;-72
2022/12/12 07:46:56;;;;;;;31.03;17.20;;;;;;;;;;5010864;28;20186;-71
2022/12/12 07:49:21;;;;;;;31.57;16.40;;;;;;;;;;5009040;28;20187;-71
2022/12/12 07:51:46;;;;;;;38.67;18.53;;;;;;;;;;5010627;28;20198;-71
2022/12/12 07:54:12;;;;;;;35.33;18.23;;;;;;;;;;5010923;28;20205;-72
2022/12/12 07:56:37;;;;;;;38.50;18.13;;;;;;;;;;5012737;28;20179;-72
2022/12/12 07:59:02;;;;;;;38.63;19.27;;;;;;;;;;5012552;28;20187;-72
2022/12/12 08:01:29;;;;;;;38.23;19.03;;;;;;;;;;5008963;28;20182;-72
2022/12/12 08:03:54;;;;;;;40.23;18.00;;;;;;;;;;5009469;28;20229;-72
2022/12/12 08:06:20;;;;;;;38.47;18.17;;;;;;;;;;5011161;28;20183;-71
2022/12/12 08:08:46;;;;;;;39.53;19.87;;;;;;;;;;5012421;28;20194;-70
2022/12/12 08:11:12;;;;;;;32.20;17.07;;;;;;;;;;5010860;28;20195;-70
2022/12/12 08:13:38;;;;;;;43.03;18.90;;;;;;;;;;5012123;28;20210;-70
2022/12/12 08:16:05;;;;;;;40.03;19.03;;;;;;;;;;5015906;28;20167;-70
2022/12/12 08:18:30;;;;;;;42.57;20.57;;;;;;;;;;5011101;28;20190;-70
2022/12/12 08:20:55;;;;;;;38.13;19.53;;;;;;;;;;5010218;28;20179;-70
2022/12/12 08:23:20;;;;;;;40.93;19.00;;;;;;;;;;5011953;28;20186;-70
2022/12/12 08:25:46;;;;;;;31.93;17.20;;;;;;;;;;5012096;28;20269;-70
2022/12/12 08:28:11;;;;;;;45.13;19.20;;;;;;;;;;5009614;28;20183;-71
2022/12/12 08:30:36;;;;;;;36.80;17.53;;;;;;;;;;5009934;28;20187;-70
2022/12/12 08:33:02;;;;;;;44.00;19.77;;;;;;;;;;5011818;28;20191;-71
2022/12/12 08:35:30;;;;;;;40.90;18.73;;;;;;;;;;5010623;28;20229;-70
2022/12/12 08:37:55;;;;;;;40.70;19.70;;;;;;;;;;5012935;28;20206;-72
2022/12/12 08:40:20;;;;;;;42.90;20.30;;;;;;;;;;5011697;28;20213;-70
2022/12/12 08:42:46;;;;;;;43.57;20.23;;;;;;;;;;5011311;28;20182;-70
2022/12/12 08:45:11;;;;;;;41.03;20.43;;;;;;;;;;5014296;28;20206;-70
2022/12/12 08:47:36;;;;;;;41.70;20.53;;;;;;;;;;5007004;28;20187;-70
2022/12/12 08:50:02;;;;;;;46.13;20.53;;;;;;;;;;5012740;28;20178;-71
2022/12/12 08:52:27;;;;;;;43.90;19.67;;;;;;;;;;5011404;28;20648;-70
2022/12/12 08:54:52;;;;;;;49.47;23.67;;;;;;;;;;5012770;28;20718;-70
2022/12/12 08:57:17;;;;;;;44.67;21.10;;;;;;;;;;5014253;28;20277;-70
2022/12/12 08:59:43;;;;;;;49.83;21.00;;;;;;;;;;5010190;28;20224;-70
2022/12/12 09:02:10;;;;;;;47.30;20.93;;;;;;;;;;5014209;28;20174;-70
2022/12/12 09:04:35;;;;;;;52.93;20.60;;;;;;;;;;5012403;28;20210;-71
2022/12/12 09:07:00;;;;;;;45.57;22.43;;;;;;;;;;5011909;28;20178;-70
2022/12/12 09:09:26;;;;;;;46.40;21.07;;;;;;;;;;5017241;28;20179;-71
2022/12/12 09:11:51;;;;;;;40.53;20.97;;;;;;;;;;5010785;28;20195;-70
2022/12/12 09:14:17;;;;;;;46.90;22.13;;;;;;;;;;5012460;28;20649;-71
2022/12/12 09:16:42;;;;;;;42.63;19.30;;;;;;;;;;5012291;28;20179;-71
2022/12/12 09:19:08;;;;;;;43.37;20.10;;;;;;;;;;5011083;28;20531;-70
2022/12/12 09:21:33;;;;;;;47.83;21.07;;;;;;;;;;5014444;28;20209;-70
2022/12/12 09:23:58;;;;;;;52.53;24.03;;;;;;;;;;5024341;22;20728;-78
2022/12/12 09:26:24;;;;;;;51.43;25.57;;;;;;;;;;5031280;28;20189;-79
2022/12/12 09:28:49;;;;;;;44.87;25.60;;;;;;;;;;5031080;28;20177;-76
2022/12/12 09:31:14;;;;;;;50.87;24.30;;;;;;;;;;5028074;28;20498;-77
2022/12/12 09:33:41;;;;;;;42.37;23.10;;;;;;;;;;5030851;28;20174;-77
2022/12/12 09:36:07;;;;;;;39.53;22.07;;;;;;;;;;5036441;28;20652;-76
2022/12/12 09:38:33;;;;;;;35.53;19.50;;;;;;;;;;5030888;28;20639;-79
2022/12/12 09:41:01;;;;;;;31.10;19.73;;;;;;;;;;5029689;28;20686;-77
2022/12/12 09:43:27;;;;;;;35.90;18.77;;;;;;;;;;5030623;28;20232;-76
2022/12/12 09:45:53;;;;;;;30.40;18.57;;;;;;;;;;5030459;28;20672;-79
2022/12/12 09:48:26;;;;;;;31.03;17.83;;;;;;;;;;5024600;28;20182;-79
2022/12/12 09:50:52;;;;;;;33.33;17.97;;;;;;;;;;5029685;28;20644;-76
2022/12/12 09:53:18;;;;;;;31.60;17.57;;;;;;;;;;5030975;28;20178;-77
2022/12/12 09:56:05;;;;;;;31.50;17.40;;;;;;;;;;5023383;28;20272;-77
2022/12/12 09:58:35;;;;;;;37.53;17.53;;;;;;;;;;5029426;28;20197;-76
2022/12/12 10:01:06;;;;;;;30.83;16.60;;;;;;;;;;5029331;28;20599;-79
2022/12/12 10:03:31;;;;;;;31.77;16.93;;;;;;;;;;5025639;28;20208;-76
2022/12/12 10:06:07;;;;;;;30.80;17.13;;;;;;;;;;5029777;28;20565;-76
2022/12/12 10:08:51;;;;;;;29.57;16.67;;;;;;;;;;5027776;28;20186;-76
2022/12/12 10:14:05;;;;;;;27.83;16.10;;;;;;;;;;5025591;28;20288;-76
2022/12/12 10:16:31;;;;;;;28.17;16.40;;;;;;;;;;5033767;28;20222;-78
2022/12/12 10:19:03;;;;;;;22.63;14.73;;;;;;;;;;5033876;28;20608;-77
2022/12/12 10:21:31;;;;;;;26.27;15.07;;;;;;;;;;5031399;28;20273;-76
2022/12/12 10:24:10;;;;;;;28.17;15.07;;;;;;;;;;5033489;28;20202;-77
2022/12/12 10:26:35;;;;;;;23.37;14.03;;;;;;;;;;5033580;28;20174;-76
2022/12/12 10:29:12;;;;;;;23.90;14.87;;;;;;;;;;5033411;28;20269;-76
2022/12/12 10:31:49;;;;;;;24.80;14.87;;;;;;;;;;5031730;28;20212;-77
2022/12/12 10:34:20;;;;;;;26.00;13.57;;;;;;;;;;5033112;28;20198;-77
2022/12/12 10:37:03;;;;;;;22.40;13.67;;;;;;;;;;5023921;28;20179;-77
2022/12/12 10:39:47;;;;;;;22.33;13.67;;;;;;;;;;5031916;28;20170;-79
2022/12/12 10:42:25;;;;;;;19.60;11.60;;;;;;;;;;5027325;28;20236;-80
2022/12/12 10:44:56;;;;;;;22.70;13.03;;;;;;;;;;5034305;28;20944;-79
2022/12/12 10:47:22;;;;;;;18.30;11.97;;;;;;;;;;5030709;28;20285;-79
2022/12/12 10:49:48;;;;;;;20.03;12.83;;;;;;;;;;5032983;28;20274;-78
2022/12/12 10:52:17;;;;;;;21.37;12.97;;;;;;;;;;5032751;28;20607;-79
2022/12/12 10:54:48;;;;;;;19.23;11.73;;;;;;;;;;5031083;28;20201;-79
2022/12/12 10:57:22;;;;;;;21.87;12.67;;;;;;;;;;5035269;28;20235;-79
2022/12/12 10:59:52;;;;;;;20.30;11.53;;;;;;;;;;5032815;28;20208;-79
2022/12/12 11:02:37;;;;;;;18.27;10.97;;;;;;;;;;5031653;28;20174;-80
2022/12/12 11:05:08;;;;;;;18.80;11.73;;;;;;;;;;5032001;28;20198;-80
2022/12/12 11:07:40;;;;;;;21.50;12.63;;;;;;;;;;5033187;28;20186;-80
2022/12/12 11:10:26;;;;;;;19.23;11.03;;;;;;;;;;5031726;28;20560;-80
2022/12/12 11:12:57;;;;;;;21.47;11.87;;;;;;;;;;5020431;28;20692;-80
2022/12/12 11:15:31;;;;;;;22.97;11.77;;;;;;;;;;5033200;28;20604;-80
2022/12/12 11:17:57;;;;;;;21.47;11.50;;;;;;;;;;5031785;28;20186;-80
2022/12/12 11:20:23;;;;;;;19.70;11.50;;;;;;;;;;5033207;28;20178;-80
2022/12/12 11:22:51;;;;;;;17.67;11.07;;;;;;;;;;5031331;28;20178;-80
2022/12/12 11:25:30;;;;;;;18.27;11.10;;;;;;;;;;5032078;28;20222;-80
2022/12/12 11:28:00;;;;;;;19.90;11.20;;;;;;;;;;5032684;28;20603;-80
2022/12/12 11:30:33;;;;;;;21.00;12.00;;;;;;;;;;5031979;28;20636;-80
2022/12/12 11:32:58;;;;;;;21.87;12.77;;;;;;;;;;5026980;28;20209;-80
2022/12/12 11:35:32;;;;;;;21.83;11.80;;;;;;;;;;5033999;28;20198;-80
2022/12/12 11:38:00;;;;;;;20.87;11.50;;;;;;;;;;5025819;28;20182;-80
2022/12/12 11:40:26;;;;;;;19.90;12.47;;;;;;;;;;5030530;28;20178;-80
2022/12/12 11:43:04;;;;;;;18.33;11.13;;;;;;;;;;5033349;28;20179;-81
2022/12/12 11:45:30;;;;;;;19.47;11.27;;;;;;;;;;5032342;28;20280;-80
2022/12/12 11:47:55;;;;;;;19.40;11.83;;;;;;;;;;5037154;28;20277;-78
2022/12/12 11:50:28;;;;;;;22.47;12.63;;;;;;;;;;5034833;28;20186;-79
2022/12/12 11:52:54;;;;;;;21.23;11.37;;;;;;;;;;5032410;28;20394;-78
2022/12/12 11:55:35;;;;;;;20.63;11.57;;;;;;;;;;5033051;28;20256;-78
2022/12/12 11:58:01;;;;;;;18.47;11.30;;;;;;;;;;5033166;28;20702;-78
2022/12/12 12:00:31;;;;;;;21.20;12.67;;;;;;;;;;5031912;28;20191;-78
2022/12/12 12:03:16;;;;;;;18.80;11.53;;;;;;;;;;5032806;28;20190;-78
2022/12/12 12:05:48;;;;;;;18.03;10.70;;;;;;;;;;5039424;28;20630;-78
2022/12/12 12:08:16;;;;;;;21.13;11.57;;;;;;;;;;5038850;28;20182;-78
2022/12/12 12:10:41;;;;;;;18.93;10.63;;;;;;;;;;5034023;28;20179;-79
2022/12/12 12:13:06;;;;;;;17.93;11.30;;;;;;;;;;5032963;28;20178;-78
2022/12/12 12:15:34;;;;;;;17.77;11.43;;;;;;;;;;5033529;28;20198;-78
2022/12/12 12:18:10;;;;;;;16.30;10.80;;;;;;;;;;5034274;28;20174;-78
2022/12/12 12:20:54;;;;;;;18.50;11.37;;;;;;;;;;5039912;28;20251;-78
2022/12/12 12:23:31;;;;;;;20.30;11.87;;;;;;;;;;5038376;28;20193;-78
2022/12/12 12:25:57;;;;;;;17.67;11.77;;;;;;;;;;5038548;28;20193;-78
2022/12/12 12:28:40;;;;;;;15.67;10.97;;;;;;;;;;5033547;28;20556;-78
2022/12/12 12:31:25;;;;;;;19.03;11.47;;;;;;;;;;5030084;28;20223;-78
2022/12/12 12:34:09;;;;;;;18.07;10.87;;;;;;;;;;5034749;28;20701;-78
2022/12/12 12:36:42;;;;;;;21.23;11.70;;;;;;;;;;5033722;28;20182;-78
2022/12/12 12:39:17;;;;;;;17.77;11.30;;;;;;;;;;5034772;28;20223;-78
2022/12/12 12:41:49;;;;;;;25.70;13.00;;;;;;;;;;5027373;28;20652;-77
2022/12/12 12:44:35;;;;;;;17.47;10.37;;;;;;;;;;5030496;28;20755;-78
2022/12/12 12:47:21;;;;;;;16.97;11.40;;;;;;;;;;5032108;28;20189;-78
2022/12/12 12:49:52;;;;;;;16.93;11.33;;;;;;;;;;5034698;28;20178;-78
2022/12/12 12:52:28;;;;;;;18.67;11.50;;;;;;;;;;5033049;28;20210;-78
2022/12/12 12:54:56;;;;;;;18.30;12.10;;;;;;;;;;5031985;28;20200;-78
2022/12/12 12:57:25;;;;;;;19.17;11.97;;;;;;;;;;5032040;28;20534;-78
2022/12/12 12:59:52;;;;;;;19.80;10.33;;;;;;;;;;5030972;28;20185;-77
2022/12/12 13:02:25;;;;;;;17.27;10.70;;;;;;;;;;5030326;28;20182;-80
2022/12/12 13:05:10;;;;;;;19.90;11.23;;;;;;;;;;5030972;28;20399;-78
2022/12/12 13:07:47;;;;;;;24.50;12.50;;;;;;;;;;5037812;28;20632;-77
2022/12/12 13:10:22;;;;;;;20.90;11.57;;;;;;;;;;5030741;28;20192;-77
2022/12/12 13:12:53;;;;;;;16.83;11.03;;;;;;;;;;5010959;28;20284;-78
2022/12/12 13:15:27;;;;;;;18.43;11.23;;;;;;;;;;5032249;28;20225;-78
2022/12/12 13:18:03;;;;;;;19.07;11.27;;;;;;;;;;5028808;28;20171;-77
2022/12/12 13:20:31;;;;;;;15.10;9.97;;;;;;;;;;5028806;28;20217;-77
2022/12/12 13:23:09;;;;;;;15.70;9.93;;;;;;;;;;5040350;28;20253;-77
2022/12/12 13:25:43;;;;;;;19.10;11.27;;;;;;;;;;5029293;28;20221;-78
2022/12/12 13:28:14;;;;;;;19.53;10.40;;;;;;;;;;5024876;28;20647;-78
2022/12/12 13:30:55;;;;;;;17.63;11.10;;;;;;;;;;5029169;28;20198;-78
2022/12/12 13:33:53;;;;;;;17.13;9.97;;;;;;;;;;5034531;28;20182;-78
2022/12/12 13:36:18;;;;;;;17.70;10.33;;;;;;;;;;5010059;28;20626;-77
2022/12/12 13:38:51;;;;;;;17.13;10.00;;;;;;;;;;5031225;28;20201;-78
2022/12/12 13:41:16;;;;;;;18.70;10.33;;;;;;;;;;5026104;28;20181;-78
2022/12/12 13:43:53;;;;;;;19.37;11.30;;;;;;;;;;5026993;28;20655;-77
2022/12/12 13:46:29;;;;;;;17.33;10.23;;;;;;;;;;5028154;28;20189;-78
2022/12/12 13:48:56;;;;;;;17.90;10.37;;;;;;;;;;5031851;28;20640;-77
2022/12/12 13:51:31;;;;;;;15.10;9.73;;;;;;;;;;5034102;28;20209;-77
2022/12/12 13:54:05;;;;;;;18.07;10.70;;;;;;;;;;5032706;28;20658;-78
2022/12/12 13:56:40;;;;;;;18.80;10.10;;;;;;;;;;5036630;28;20178;-77
2022/12/12 13:59:20;;;;;;;15.97;9.80;;;;;;;;;;5032234;28;20178;-78
2022/12/12 14:01:46;;;;;;;16.17;10.47;;;;;;;;;;5029283;28;20657;-78
2022/12/12 14:04:30;;;;;;;16.67;10.00;;;;;;;;;;5034416;28;20202;-78
2022/12/12 14:07:11;;;;;;;14.93;9.57;;;;;;;;;;5034951;28;20193;-77
2022/12/12 14:09:37;;;;;;;16.63;9.70;;;;;;;;;;5032945;28;20253;-77
2022/12/12 14:12:22;;;;;;;15.83;9.33;;;;;;;;;;5034178;28;20206;-77
2022/12/12 14:14:55;;;;;;;14.80;8.73;;;;;;;;;;5033625;28;20293;-77
2022/12/12 14:17:22;;;;;;;17.03;9.60;;;;;;;;;;5039571;28;20182;-77
2022/12/12 14:19:49;;;;;;;14.67;9.53;;;;;;;;;;5034011;28;20178;-77
2022/12/12 14:22:28;;;;;;;16.13;9.37;;;;;;;;;;5034652;28;20617;-77
2022/12/12 14:24:55;;;;;;;16.80;9.90;;;;;;;;;;5036165;28;20214;-76
2022/12/12 14:27:40;;;;;;;16.67;9.40;;;;;;;;;;5039053;28;20186;-77
2022/12/12 14:30:15;;;;;;;17.63;9.93;;;;;;;;;;5037473;28;20186;-77
2022/12/12 14:32:44;;;;;;;15.90;9.43;;;;;;;;;;5038471;28;20202;-76
2022/12/12 14:35:28;;;;;;;14.87;9.13;;;;;;;;;;5039760;28;20202;-77
2022/12/12 14:38:12;;;;;;;16.70;8.90;;;;;;;;;;5028870;28;20261;-77
2022/12/12 14:40:45;;;;;;;15.07;9.87;;;;;;;;;;5038832;28;20185;-77
2022/12/12 14:43:13;;;;;;;15.80;8.87;;;;;;;;;;5037580;28;20182;-76
2022/12/12 14:45:59;;;;;;;16.60;9.67;;;;;;;;;;5036826;28;20190;-78